createdAt,value
2022-08-07T00:01:42.975Z,38.38
2022-08-07T00:03:53.370Z,38.68
2022-08-07T00:06:33.027Z,38.71
2022-08-07T00:09:16.885Z,38.56
2022-08-07T00:11:55.521Z,38.15
2022-08-07T00:14:25.583Z,38.74
2022-08-07T00:16:57.813Z,38.64
2022-08-07T00:19:34.142Z,38.52
2022-08-07T00:22:13.753Z,38.90
2022-08-07T00:24:52.088Z,38.56
2022-08-07T00:27:19.349Z,38.90
2022-08-07T00:29:50.086Z,38.99
2022-08-07T00:32:17.345Z,38.95
2022-08-07T00:34:51.845Z,38.89
2022-08-07T00:37:21.366Z,38.80
2022-08-07T00:39:54.622Z,38.83
2022-08-07T00:42:25.490Z,38.99
2022-08-07T00:44:56.434Z,38.84
2022-08-07T00:48:09.411Z,39.12
2022-08-07T00:50:19.570Z,38.83
2022-08-07T00:52:50.104Z,38.92
2022-08-07T00:55:25.502Z,38.76
2022-08-07T00:58:07.667Z,38.69
2022-08-07T01:00:36.045Z,38.53
2022-08-07T01:03:04.144Z,38.46
2022-08-07T01:05:36.542Z,38.38
2022-08-07T01:08:09.137Z,37.70
2022-08-07T01:10:36.491Z,37.70
2022-08-07T01:13:04.284Z,38.02
2022-08-07T01:15:35.936Z,38.75
2022-08-07T01:18:24.693Z,38.32
2022-08-07T01:21:01.964Z,38.38
2022-08-07T01:23:39.473Z,38.68
2022-08-07T01:26:12.060Z,38.44
2022-08-07T01:28:46.347Z,38.34
2022-08-07T01:31:17.999Z,38.40
2022-08-07T01:33:55.926Z,38.74
2022-08-07T01:36:33.432Z,38.68
2022-08-07T01:39:01.395Z,37.74
2022-08-07T01:41:32.603Z,37.64
2022-08-07T01:43:59.892Z,37.18
2022-08-07T01:46:29.086Z,37.59
2022-08-07T01:48:59.825Z,37.53
2022-08-07T01:52:03.970Z,37.54
2022-08-07T01:54:33.093Z,37.51
2022-08-07T01:57:08.477Z,37.43
2022-08-07T01:59:44.129Z,37.51
2022-08-07T02:03:11.680Z,37.50
2022-08-07T02:05:16.154Z,37.52
2022-08-07T02:08:08.875Z,37.94
2022-08-07T02:10:42.275Z,37.60
2022-08-07T02:13:13.205Z,37.85
2022-08-07T02:15:44.105Z,37.66
2022-08-07T02:18:14.046Z,37.71
2022-08-07T02:20:48.663Z,37.71
2022-08-07T02:23:23.991Z,38.08
2022-08-07T02:26:30.571Z,37.61
2022-08-07T02:28:44.040Z,38.00
2022-08-07T02:31:28.589Z,38.35
2022-08-07T02:34:11.274Z,37.43
2022-08-07T02:36:46.131Z,38.54
2022-08-07T02:39:42.922Z,38.01
2022-08-07T02:42:10.201Z,37.88
2022-08-07T02:44:48.720Z,38.21
2022-08-07T02:47:44.837Z,38.08
2022-08-07T02:50:08.086Z,37.85
2022-08-07T02:52:41.671Z,37.70
2022-08-07T02:55:28.288Z,37.94
2022-08-07T02:58:12.305Z,38.24
2022-08-07T03:00:46.896Z,38.33
2022-08-07T03:03:21.061Z,38.32
2022-08-07T03:05:53.670Z,37.93
2022-08-07T03:08:26.912Z,38.24
2022-08-07T03:10:59.566Z,38.07
2022-08-07T03:13:27.020Z,38.36
2022-08-07T03:15:58.296Z,38.37
2022-08-07T03:18:35.075Z,37.79
2022-08-07T03:21:08.210Z,37.96
2022-08-07T03:24:20.820Z,38.06
2022-08-07T03:26:31.409Z,38.20
2022-08-07T03:29:02.066Z,38.21
2022-08-07T03:31:43.064Z,38.16
2022-08-07T03:34:18.835Z,38.12
2022-08-07T03:36:52.872Z,38.40
2022-08-07T03:39:59.673Z,37.84
2022-08-07T03:42:15.945Z,38.14
2022-08-07T03:44:47.179Z,38.27
2022-08-07T03:47:21.284Z,38.21
2022-08-07T03:49:52.440Z,38.17
2022-08-07T03:52:26.614Z,38.17
2022-08-07T03:54:57.351Z,38.36
2022-08-07T03:58:35.388Z,38.04
2022-08-07T04:00:29.243Z,38.22
2022-08-07T04:02:59.010Z,38.53
2022-08-07T04:05:39.240Z,38.35
2022-08-07T04:08:11.183Z,38.78
2022-08-07T04:10:39.584Z,38.43
2022-08-07T04:13:15.553Z,38.69
2022-08-07T04:15:45.578Z,38.56
2022-08-07T04:18:57.688Z,38.62
2022-08-07T04:21:01.794Z,38.26
2022-08-07T04:23:43.585Z,38.44
2022-08-07T04:26:21.919Z,38.62
2022-08-07T04:28:51.848Z,38.64
2022-08-07T04:31:39.262Z,38.51
2022-08-07T04:34:16.924Z,38.45
2022-08-07T04:36:45.389Z,38.68
2022-08-07T04:39:17.845Z,38.96
2022-08-07T04:41:50.419Z,39.01
2022-08-07T04:44:20.007Z,39.06
2022-08-07T04:47:07.980Z,38.69
2022-08-07T04:49:57.452Z,38.87
2022-08-07T04:52:36.424Z,38.90
2022-08-07T04:58:12.320Z,38.71
2022-08-07T04:58:34.868Z,38.63
2022-08-07T05:01:13.872Z,39.04
2022-08-07T05:04:06.994Z,38.91
2022-08-07T05:06:51.153Z,39.02
2022-08-07T05:09:45.346Z,39.00
2022-08-07T05:12:27.044Z,39.37
2022-08-07T05:15:05.926Z,39.14
2022-08-07T05:17:52.204Z,39.42
2022-08-07T05:20:27.252Z,39.36
2022-08-07T05:23:01.959Z,39.42
2022-08-07T05:25:54.377Z,39.36
2022-08-07T05:28:23.265Z,39.29
2022-08-07T05:30:57.021Z,39.07
2022-08-07T05:33:29.364Z,39.29
2022-08-07T05:35:58.504Z,39.18
2022-08-07T05:39:01.170Z,39.43
2022-08-07T05:41:18.280Z,38.90
2022-08-07T05:44:12.089Z,39.39
2022-08-07T05:46:40.446Z,39.19
2022-08-07T05:49:12.983Z,39.30
2022-08-07T05:51:43.202Z,39.39
2022-08-07T05:54:31.055Z,39.13
2022-08-07T05:57:04.123Z,39.16
2022-08-07T05:59:55.588Z,39.05
2022-08-07T06:02:29.563Z,38.87
2022-08-07T06:05:05.087Z,38.79
2022-08-07T06:08:14.135Z,38.97
2022-08-07T06:10:23.583Z,38.90
2022-08-07T06:12:51.421Z,39.13
2022-08-07T06:15:20.393Z,39.37
2022-08-07T06:17:53.706Z,39.17
2022-08-07T06:20:31.935Z,39.32
2022-08-07T06:23:46.435Z,39.33
2022-08-07T06:26:01.464Z,39.03
2022-08-07T06:28:29.365Z,39.28
2022-08-07T06:30:58.171Z,39.21
2022-08-07T06:33:26.542Z,39.39
2022-08-07T06:36:13.415Z,39.29
2022-08-07T06:38:51.207Z,39.30
2022-08-07T06:42:01.063Z,39.44
2022-08-07T06:44:21.681Z,39.19
2022-08-07T06:46:53.339Z,39.52
2022-08-07T06:49:27.921Z,39.70
2022-08-07T06:51:59.823Z,39.45
2022-08-07T06:55:33.047Z,39.64
2022-08-07T06:57:39.627Z,39.27
2022-08-07T07:00:18.152Z,39.61
2022-08-07T07:02:54.165Z,39.45
2022-08-07T07:06:03.075Z,39.54
2022-08-07T07:08:18.609Z,39.77
2022-08-07T07:10:54.802Z,39.83
2022-08-07T07:13:55.564Z,39.72
2022-08-07T07:16:27.490Z,39.40
2022-08-07T07:19:54.562Z,39.38
2022-08-07T07:22:04.722Z,39.20
2022-08-07T07:24:56.927Z,39.54
2022-08-07T07:27:35.468Z,39.68
2022-08-07T07:30:32.547Z,39.51
2022-08-07T07:33:11.858Z,39.43
2022-08-07T07:35:50.628Z,39.30
2022-08-07T07:38:32.981Z,39.44
2022-08-07T07:41:08.661Z,39.80
2022-08-07T07:44:13.969Z,39.58
2022-08-07T07:46:36.752Z,39.50
2022-08-07T07:50:35.717Z,39.03
2022-08-07T07:52:15.881Z,39.30
2022-08-07T07:54:51.302Z,39.11
2022-08-07T07:57:52.361Z,39.11
2022-08-07T08:00:20.687Z,39.25
2022-08-07T08:03:04.828Z,39.26
2022-08-07T08:05:54.527Z,39.29
2022-08-07T08:08:34.328Z,39.10
2022-08-07T08:11:08.106Z,39.11
2022-08-07T08:13:53.061Z,38.76
2022-08-07T08:18:36.893Z,38.54
2022-08-07T08:20:17.175Z,39.01
2022-08-07T08:22:10.553Z,38.51
2022-08-07T08:24:45.683Z,39.27
2022-08-07T08:27:17.623Z,38.74
2022-08-07T08:29:54.713Z,38.94
2022-08-07T08:32:38.127Z,38.90
2022-08-07T08:35:10.052Z,38.85
2022-08-07T08:38:00.717Z,38.74
2022-08-07T08:40:32.745Z,38.79
2022-08-07T08:43:10.865Z,38.57
2022-08-07T08:45:59.239Z,38.64
2022-08-07T08:48:39.822Z,38.91
2022-08-07T08:51:22.449Z,38.39
2022-08-07T08:54:15.921Z,38.74
2022-08-07T08:56:51.423Z,38.74
2022-08-07T08:59:29.284Z,38.77
2022-08-07T09:02:09.975Z,38.32
2022-08-07T09:04:47.082Z,38.50
2022-08-07T09:07:25.382Z,38.37
2022-08-07T09:10:04.207Z,38.55
2022-08-07T09:12:56.922Z,38.40
2022-08-07T09:16:20.678Z,38.46
2022-08-07T09:18:58.421Z,38.76
2022-08-07T09:22:10.155Z,38.29
2022-08-07T09:24:59.627Z,38.61
2022-08-07T09:27:54.607Z,38.23
2022-08-07T09:30:25.459Z,38.33
2022-08-07T09:33:16.516Z,38.21
2022-08-07T09:36:06.345Z,38.15
2022-08-07T09:38:50.204Z,37.77
2022-08-07T09:41:36.336Z,38.17
2022-08-07T09:44:40.469Z,38.00
2022-08-07T09:47:59.171Z,38.30
2022-08-07T09:50:30.844Z,39.27
2022-08-07T09:53:03.444Z,38.58
2022-08-07T09:56:03.400Z,41.38
2022-08-07T09:59:01.606Z,42.22
2022-08-07T10:01:58.203Z,38.98
2022-08-07T10:04:46.222Z,40.14
2022-08-07T10:07:53.103Z,41.24
2022-08-07T10:14:00.733Z,37.77
2022-08-07T10:17:01.186Z,36.95
2022-08-07T10:19:56.741Z,37.39
2022-08-07T10:22:57.844Z,37.28
2022-08-07T10:25:42.940Z,36.23
2022-08-07T10:28:49.574Z,36.96
2022-08-07T10:31:49.596Z,36.48
2022-08-07T10:34:33.861Z,36.42
2022-08-07T10:37:48.113Z,36.33
2022-08-07T10:40:20.924Z,37.15
2022-08-07T10:43:01.083Z,36.77
2022-08-07T10:45:44.377Z,37.04
2022-08-07T10:48:35.042Z,36.67
2022-08-07T10:51:09.360Z,36.33
2022-08-07T10:53:51.721Z,36.75
2022-08-07T10:56:46.345Z,37.49
2022-08-07T10:59:37.314Z,37.61
2022-08-07T11:02:32.960Z,37.63
2022-08-07T11:05:14.643Z,37.26
2022-08-07T11:07:59.365Z,36.87
2022-08-07T11:10:39.862Z,36.20
2022-08-07T11:14:42.647Z,37.66
2022-08-07T11:16:09.123Z,38.10
2022-08-07T11:18:50.750Z,37.89
2022-08-07T11:21:32.106Z,39.06
2022-08-07T11:24:11.566Z,37.75
2022-08-07T11:26:49.983Z,38.08
2022-08-07T11:29:40.944Z,38.70
2022-08-07T11:32:26.163Z,38.25
2022-08-07T11:34:58.745Z,37.96
2022-08-07T11:37:58.348Z,38.56
2022-08-07T11:40:49.768Z,38.27
2022-08-07T11:43:29.789Z,38.58
2022-08-07T11:46:36.725Z,38.16
2022-08-07T11:49:51.445Z,38.54
2022-08-07T11:52:35.628Z,38.56
2022-08-07T11:55:18.885Z,37.60
2022-08-07T11:58:16.960Z,37.16
2022-08-07T12:01:04.234Z,36.43
2022-08-07T12:03:52.902Z,36.35
2022-08-07T12:06:51.478Z,37.15
2022-08-07T12:09:34.241Z,37.25
2022-08-07T12:12:09.363Z,35.81
2022-08-07T12:15:01.381Z,35.88
2022-08-07T12:17:38.037Z,35.11
2022-08-07T12:20:30.284Z,35.55
2022-08-07T12:24:05.052Z,35.07
2022-08-07T12:26:40.520Z,36.85
2022-08-07T12:29:37.295Z,33.32
2022-08-07T12:32:15.920Z,33.59
2022-08-07T12:34:49.465Z,32.72
2022-08-07T12:37:23.376Z,33.62
2022-08-07T12:40:00.057Z,34.34
2022-08-07T12:42:32.184Z,33.45
2022-08-07T12:45:08.028Z,32.93
2022-08-07T12:47:45.741Z,34.83
2022-08-07T12:50:33.912Z,33.80
2022-08-07T12:53:18.132Z,33.69
2022-08-07T12:56:02.482Z,35.38
2022-08-07T12:58:39.233Z,34.49
2022-08-07T13:01:19.333Z,34.77
2022-08-07T13:04:09.825Z,34.59
2022-08-07T13:08:12.581Z,34.73
2022-08-07T13:10:40.868Z,37.56
2022-08-07T13:13:48.182Z,36.49
2022-08-07T13:16:27.320Z,35.75
2022-08-07T13:19:21.874Z,33.67
2022-08-07T13:22:12.806Z,33.72
2022-08-07T13:25:00.564Z,35.54
2022-08-07T13:28:10.806Z,34.76
2022-08-07T13:30:41.023Z,34.60
2022-08-07T13:34:31.527Z,34.05
2022-08-07T13:36:17.534Z,34.09
2022-08-07T13:38:55.306Z,34.21
2022-08-07T13:41:33.892Z,34.73
2022-08-07T13:44:10.225Z,34.75
2022-08-07T13:46:49.311Z,35.42
2022-08-07T13:50:34.180Z,36.01
2022-08-07T13:52:30.649Z,35.61
2022-08-07T13:54:58.783Z,35.71
2022-08-07T13:57:37.555Z,35.45
2022-08-07T14:00:08.440Z,35.09
2022-08-07T14:02:58.752Z,34.88
2022-08-07T14:05:37.592Z,34.63
2022-08-07T14:08:08.242Z,34.70
2022-08-07T14:10:41.678Z,35.47
2022-08-07T14:13:16.865Z,35.48
2022-08-07T14:15:57.006Z,35.32
2022-08-07T14:18:32.584Z,34.45
2022-08-07T14:21:20.936Z,35.67
2022-08-07T14:24:02.240Z,35.55
2022-08-07T14:26:38.462Z,35.94
2022-08-07T14:30:02.804Z,35.21
2022-08-07T14:32:02.135Z,35.17
2022-08-07T14:34:33.966Z,36.24
2022-08-07T14:37:04.377Z,35.51
2022-08-07T14:40:17.121Z,35.64
2022-08-07T14:42:31.337Z,36.17
2022-08-07T14:45:21.294Z,35.04
2022-08-07T14:50:48.169Z,36.10
2022-08-07T14:54:03.758Z,35.58
2022-08-07T14:56:13.881Z,35.44
2022-08-07T14:58:52.507Z,36.10
2022-08-07T15:01:28.510Z,35.55
2022-08-07T15:04:17.343Z,36.10
2022-08-07T15:06:49.721Z,35.28
2022-08-07T15:15:07.453Z,34.28
2022-08-07T15:17:55.589Z,34.27
2022-08-07T15:20:34.034Z,34.31
2022-08-07T15:25:02.261Z,34.45
2022-08-07T15:26:20.624Z,34.98
2022-08-07T15:32:00.977Z,35.60
2022-08-07T15:34:36.285Z,35.10
2022-08-07T15:37:06.689Z,35.52
2022-08-07T15:39:57.927Z,35.35
2022-08-07T15:42:53.022Z,34.41
2022-08-07T15:45:57.561Z,34.46
2022-08-07T15:48:25.820Z,34.94
2022-08-07T15:51:01.339Z,34.58
2022-08-07T15:53:51.640Z,33.98
2022-08-07T15:56:33.288Z,34.68
2022-08-07T15:59:04.716Z,34.87
2022-08-07T16:01:38.565Z,34.78
2022-08-07T16:04:14.864Z,34.60
2022-08-07T16:06:51.767Z,35.59
2022-08-07T16:09:42.329Z,34.87
2022-08-07T16:12:29.792Z,34.83
2022-08-07T16:15:58.202Z,34.93
2022-08-07T16:18:50.127Z,35.22
2022-08-07T16:22:01.418Z,35.05
2022-08-07T16:24:02.863Z,34.83
2022-08-07T16:26:59.537Z,34.79
2022-08-07T16:30:11.460Z,35.34
2022-08-07T16:32:59.162Z,34.40
2022-08-07T16:35:51.751Z,33.81
2022-08-07T16:39:01.315Z,33.10
2022-08-07T16:42:02.341Z,34.01
2022-08-07T16:45:14.968Z,34.05
2022-08-07T16:48:10.001Z,33.56
2022-08-07T16:51:20.523Z,33.58
2022-08-07T16:54:10.269Z,35.88
2022-08-07T16:56:55.885Z,35.18
2022-08-07T16:59:45.771Z,34.86
2022-08-07T17:03:05.961Z,34.19
2022-08-07T17:06:26.624Z,35.16
2022-08-07T17:09:09.461Z,35.15
2022-08-07T17:12:02.088Z,35.38
2022-08-07T17:14:34.010Z,34.35
2022-08-07T17:17:08.531Z,33.26
2022-08-07T17:20:02.106Z,34.03
2022-08-07T17:22:42.539Z,34.58
2022-08-07T17:25:18.426Z,34.02
2022-08-07T17:28:00.426Z,34.19
2022-08-07T17:30:35.600Z,33.90
2022-08-07T17:34:08.819Z,34.56
2022-08-07T17:36:13.638Z,33.61
2022-08-07T17:39:00.532Z,34.11
2022-08-07T17:42:02.969Z,35.66
2022-08-07T17:44:45.498Z,35.13
2022-08-07T17:47:38.267Z,34.78
2022-08-07T17:50:16.689Z,35.08
2022-08-07T17:52:58.989Z,35.04
2022-08-07T17:56:00.679Z,35.75
2022-08-07T17:58:31.706Z,35.27
2022-08-07T18:01:20.856Z,37.65
2022-08-07T18:04:07.190Z,36.72
2022-08-07T18:06:43.042Z,35.60
2022-08-07T18:09:19.183Z,35.14
2022-08-07T18:12:19.799Z,34.99
2022-08-07T18:15:02.030Z,35.10
2022-08-07T18:18:36.555Z,35.82
2022-08-07T18:21:11.506Z,34.94
2022-08-07T18:23:56.097Z,34.60
2022-08-07T18:26:52.281Z,34.59
2022-08-07T18:30:07.238Z,34.09
2022-08-07T18:32:28.612Z,34.13
2022-08-07T18:35:11.901Z,34.31
2022-08-07T18:38:58.179Z,34.21
2022-08-07T18:41:09.237Z,34.08
2022-08-07T18:43:57.831Z,35.52
2022-08-07T18:46:43.134Z,34.68
2022-08-07T18:50:32.509Z,34.52
2022-08-07T18:52:55.699Z,34.15
2022-08-07T18:55:40.677Z,33.90
2022-08-07T18:58:33.341Z,34.27
2022-08-07T19:02:17.300Z,34.88
2022-08-07T19:04:09.849Z,34.09
2022-08-07T19:06:55.482Z,33.69
2022-08-07T19:09:55.295Z,33.91
2022-08-07T19:12:26.476Z,33.41
2022-08-07T19:16:03.054Z,33.94
2022-08-07T19:18:17.562Z,35.40
2022-08-07T19:21:13.959Z,34.96
2022-08-07T19:24:04.642Z,35.10
2022-08-07T19:28:28.434Z,33.44
2022-08-07T19:31:04.152Z,34.33
2022-08-07T19:32:30.652Z,34.69
2022-08-07T19:35:16.859Z,34.31
2022-08-07T19:37:57.132Z,33.68
2022-08-07T19:40:31.198Z,34.40
2022-08-07T19:43:08.515Z,34.62
2022-08-07T19:46:04.699Z,35.05
2022-08-07T19:48:42.423Z,34.03
2022-08-07T19:51:20.033Z,34.47
2022-08-07T19:54:44.651Z,35.79
2022-08-07T19:57:51.656Z,35.65
2022-08-07T19:59:40.526Z,35.17
2022-08-07T20:02:24.160Z,34.73
2022-08-07T20:04:56.293Z,34.80
2022-08-07T20:07:45.820Z,36.22
2022-08-07T20:10:37.725Z,35.32
2022-08-07T20:13:15.817Z,35.63
2022-08-07T20:15:54.204Z,36.06
2022-08-07T20:18:33.585Z,35.48
2022-08-07T20:21:21.103Z,35.91
2022-08-07T20:23:57.809Z,35.88
2022-08-07T20:26:38.521Z,36.95
2022-08-07T20:29:10.347Z,36.57
2022-08-07T20:31:44.042Z,37.18
2022-08-07T20:34:15.080Z,37.39
2022-08-07T20:36:51.809Z,37.59
2022-08-07T20:40:01.326Z,38.05
2022-08-07T20:42:12.520Z,38.06
2022-08-07T20:44:45.447Z,37.95
2022-08-07T20:47:25.107Z,37.72
2022-08-07T20:49:59.717Z,37.95
2022-08-07T20:52:51.720Z,39.11
2022-08-07T20:55:24.436Z,38.60
2022-08-07T20:58:03.349Z,39.00
2022-08-07T21:00:40.468Z,38.37
2022-08-07T21:03:16.036Z,39.06
2022-08-07T21:05:54.937Z,38.65
2022-08-07T21:08:32.394Z,39.67
2022-08-07T21:11:14.477Z,39.01
2022-08-07T21:14:16.212Z,39.37
2022-08-07T21:16:56.192Z,39.58
2022-08-07T21:19:51.175Z,38.92
2022-08-07T21:22:28.483Z,39.61
2022-08-07T21:25:12.007Z,39.29
2022-08-07T21:28:01.708Z,39.47
2022-08-07T21:30:38.440Z,39.30
2022-08-07T21:33:20.306Z,39.87
2022-08-07T21:36:05.241Z,38.73
2022-08-07T21:38:49.951Z,39.08
2022-08-07T21:41:26.942Z,39.04
2022-08-07T21:44:14.610Z,39.21
2022-08-07T21:47:01.443Z,39.52
2022-08-07T21:49:40.665Z,39.18
2022-08-07T21:52:36.478Z,39.72
2022-08-07T21:55:15.297Z,38.93
2022-08-07T21:58:06.561Z,39.20
2022-08-07T22:00:39.163Z,39.47
2022-08-07T22:03:16.458Z,39.20
2022-08-07T22:05:52.801Z,39.01
2022-08-07T22:08:26.003Z,38.99
2022-08-07T22:10:59.754Z,39.07
2022-08-07T22:13:52.593Z,39.63
2022-08-07T22:16:40.947Z,39.75
2022-08-07T22:19:20.124Z,39.50
2022-08-07T22:22:17.938Z,40.21
2022-08-07T22:25:00.702Z,40.00
2022-08-07T22:28:02.966Z,40.00
2022-08-07T22:30:39.801Z,39.75
2022-08-07T22:33:15.064Z,39.76
2022-08-07T22:35:51.365Z,39.75
2022-08-07T22:38:35.925Z,40.08
2022-08-07T22:41:14.182Z,40.59
2022-08-07T22:43:50.414Z,40.26
2022-08-07T22:47:06.304Z,40.08
2022-08-07T22:50:12.322Z,44.50
2022-08-07T22:53:15.350Z,43.56
2022-08-07T22:55:59.743Z,40.57
2022-08-07T22:59:01.728Z,40.05
2022-08-07T23:01:59.248Z,40.62
2022-08-07T23:06:07.167Z,40.24
2022-08-07T23:08:22.375Z,39.12
2022-08-07T23:11:12.991Z,38.65
2022-08-07T23:14:10.837Z,38.54
2022-08-07T23:17:03.783Z,37.81
2022-08-07T23:19:52.046Z,36.94
2022-08-07T23:22:35.003Z,37.41
2022-08-07T23:25:28.667Z,37.09
2022-08-07T23:28:22.500Z,37.27
2022-08-07T23:31:18.570Z,37.52
2022-08-07T23:34:36.539Z,37.16
2022-08-07T23:37:29.692Z,36.09
2022-08-07T23:40:12.814Z,36.35
2022-08-07T23:42:57.281Z,36.88
2022-08-07T23:46:02.717Z,36.85
2022-08-07T23:48:38.985Z,36.55
2022-08-07T23:52:59.624Z,36.27
2022-08-07T23:54:36.254Z,36.11
2022-08-07T23:57:23.741Z,36.08
